Time,TemperatureF,DewpointF,PressureIn,WindDirection,WindDirectionDegrees,WindSpeedMPH,WindSpeedGustMPH,Humidity,HourlyPrecipIn,Conditions,Clouds,dailyrainin,SoftwareType,DateUTC
2013-03-03 00:02:00,38.0,29.0,30.23,ENE,78,2.0,2.0,69,0.00,,,0.00,,2013-03-03 06:02:00,
2013-03-03 00:11:00,38.0,29.0,30.23,ENE,78,2.0,2.0,69,0.00,,,0.00,,2013-03-03 06:11:00,
2013-03-03 00:21:00,39.0,28.0,30.22,East,84,1.0,3.0,64,0.00,,,0.00,,2013-03-03 06:21:00,
2013-03-03 00:32:00,39.0,25.0,30.22,East,84,0.0,1.0,58,0.00,,,0.00,,2013-03-03 06:32:00,
2013-03-03 00:42:00,39.0,25.0,30.22,East,84,0.0,1.0,58,0.00,,,0.00,,2013-03-03 06:42:00,
2013-03-03 00:52:00,40.0,26.0,30.21,SE,140,2.0,3.0,56,0.00,,,0.00,,2013-03-03 06:52:00,
2013-03-03 01:01:00,39.0,25.0,30.21,SE,125,1.0,3.0,56,0.00,,,0.00,,2013-03-03 07:01:00,
2013-03-03 01:11:00,39.0,25.0,30.21,SE,125,1.0,3.0,56,0.00,,,0.00,,2013-03-03 07:11:00,
2013-03-03 01:21:00,39.0,26.0,30.21,ESE,118,1.0,3.0,59,0.00,,,0.00,,2013-03-03 07:21:00,
2013-03-03 01:31:00,38.0,27.0,30.21,ESE,117,0.0,2.0,63,0.00,,,0.00,,2013-03-03 07:31:00,
2013-03-03 01:42:00,38.0,27.0,30.21,ESE,117,0.0,2.0,63,0.00,,,0.00,,2013-03-03 07:42:00,
2013-03-03 01:51:00,38.0,25.0,30.22,SE,136,1.0,2.0,58,0.00,,,0.00,,2013-03-03 07:51:00,
2013-03-03 02:01:00,38.0,25.0,30.21,SSE,163,2.0,3.0,58,0.00,,,0.00,,2013-03-03 08:01:00,
2013-03-03 02:11:00,38.0,25.0,30.21,SSE,163,2.0,3.0,58,0.00,,,0.00,,2013-03-03 08:11:00,
2013-03-03 02:21:00,38.0,25.0,30.21,SSE,165,1.0,3.0,58,0.00,,,0.00,,2013-03-03 08:21:00,
2013-03-03 02:31:00,36.0,25.0,30.21,SE,124,1.0,2.0,64,0.00,,,0.00,,2013-03-03 08:31:00,
2013-03-03 02:41:00,36.0,25.0,30.21,SE,124,1.0,2.0,64,0.00,,,0.00,,2013-03-03 08:41:00,
2013-03-03 02:53:00,36.0,24.0,30.21,SSW,193,2.0,3.0,62,0.00,,,0.00,,2013-03-03 08:53:00,
2013-03-03 03:01:00,37.0,25.0,30.20,South,177,1.0,3.0,62,0.00,,,0.00,,2013-03-03 09:01:00,
2013-03-03 03:11:00,37.0,25.0,30.20,South,177,1.0,3.0,62,0.00,,,0.00,,2013-03-03 09:11:00,
2013-03-03 03:21:00,37.0,25.0,30.20,South,183,1.0,3.0,61,0.00,,,0.00,,2013-03-03 09:21:00,
2013-03-03 03:32:00,36.0,24.0,30.20,South,180,1.0,2.0,62,0.00,,,0.00,,2013-03-03 09:32:00,
2013-03-03 03:41:00,36.0,24.0,30.20,South,180,1.0,2.0,62,0.00,,,0.00,,2013-03-03 09:41:00,
2013-03-03 03:51:00,36.0,25.0,30.19,South,179,1.0,2.0,64,0.00,,,0.00,,2013-03-03 09:51:00,
2013-03-03 04:01:00,35.0,27.0,30.19,ESE,122,2.0,3.0,71,0.00,,,0.00,,2013-03-03 10:01:00,
2013-03-03 04:11:00,35.0,27.0,30.19,ESE,122,2.0,3.0,71,0.00,,,0.00,,2013-03-03 10:11:00,
2013-03-03 04:21:00,35.0,27.0,30.19,ESE,122,2.0,3.0,71,0.00,,,0.00,,2013-03-03 10:21:00,
2013-03-03 04:32:00,34.0,27.0,30.18,ESE,105,1.0,2.0,74,0.00,,,0.00,,2013-03-03 10:32:00,
2013-03-03 04:42:00,34.0,27.0,30.18,ESE,105,1.0,2.0,74,0.00,,,0.00,,2013-03-03 10:42:00,
2013-03-03 04:52:00,34.0,28.0,30.18,ESE,120,2.0,2.0,78,0.00,,,0.00,,2013-03-03 10:52:00,
2013-03-03 05:01:00,34.0,28.0,30.18,SE,136,2.0,3.0,80,0.00,,,0.00,,2013-03-03 11:01:00,
2013-03-03 05:11:00,34.0,28.0,30.18,SE,136,2.0,3.0,80,0.00,,,0.00,,2013-03-03 11:11:00,
2013-03-03 05:21:00,34.0,28.0,30.18,SE,136,2.0,3.0,80,0.00,,,0.00,,2013-03-03 11:21:00,
2013-03-03 05:32:00,34.0,27.0,30.18,SE,128,2.0,3.0,75,0.00,,,0.00,,2013-03-03 11:32:00,
2013-03-03 05:42:00,34.0,27.0,30.18,SE,128,2.0,3.0,75,0.00,,,0.00,,2013-03-03 11:42:00,
2013-03-03 05:52:00,34.0,27.0,30.18,SE,128,2.0,3.0,75,0.00,,,0.00,,2013-03-03 11:52:00,
2013-03-03 06:01:00,35.0,26.0,30.18,SSE,147,3.0,5.0,70,0.00,,,0.00,,2013-03-03 12:01:00,
2013-03-03 06:11:00,35.0,26.0,30.18,SSE,147,3.0,5.0,70,0.00,,,0.00,,2013-03-03 12:11:00,
2013-03-03 06:21:00,34.0,26.0,30.19,SSE,151,3.0,5.0,72,0.00,,,0.00,,2013-03-03 12:21:00,
2013-03-03 06:32:00,34.0,26.0,30.18,SE,140,3.0,3.0,73,0.00,,,0.00,,2013-03-03 12:32:00,
2013-03-03 06:42:00,34.0,26.0,30.18,SE,140,3.0,3.0,73,0.00,,,0.00,,2013-03-03 12:42:00,
2013-03-03 06:52:00,35.0,26.0,30.18,SSE,157,3.0,5.0,70,0.00,,,0.00,,2013-03-03 12:52:00,
2013-03-03 07:01:00,35.0,26.0,30.18,SE,143,5.0,7.0,69,0.00,,,0.00,,2013-03-03 13:01:00,
2013-03-03 07:11:00,35.0,26.0,30.18,SE,143,5.0,7.0,69,0.00,,,0.00,,2013-03-03 13:11:00,
2013-03-03 07:21:00,35.0,26.0,30.18,SSE,164,3.0,8.0,68,0.00,,,0.00,,2013-03-03 13:21:00,
2013-03-03 07:32:00,36.0,26.0,30.17,SSE,163,3.0,8.0,68,0.00,,,0.00,,2013-03-03 13:32:00,
2013-03-03 07:42:00,36.0,26.0,30.17,SSE,163,3.0,8.0,68,0.00,,,0.00,,2013-03-03 13:42:00,
2013-03-03 07:51:00,36.0,26.0,30.17,SSE,155,6.0,9.0,66,0.00,,,0.00,,2013-03-03 13:51:00,
2013-03-03 08:02:00,38.0,27.0,30.17,SSE,156,5.0,10.0,63,0.00,,,0.00,,2013-03-03 14:02:00,
2013-03-03 08:11:00,38.0,27.0,30.17,SSE,156,5.0,10.0,63,0.00,,,0.00,,2013-03-03 14:11:00,
2013-03-03 08:21:00,40.0,28.0,30.17,SSE,158,6.0,9.0,61,0.00,,,0.00,,2013-03-03 14:21:00,
2013-03-03 08:32:00,42.0,27.0,30.16,SSE,155,7.0,12.0,56,0.00,,,0.00,,2013-03-03 14:32:00,
2013-03-03 08:42:00,42.0,27.0,30.16,SSE,155,7.0,12.0,56,0.00,,,0.00,,2013-03-03 14:42:00,
2013-03-03 08:52:00,42.0,27.0,30.16,SSE,155,7.0,12.0,56,0.00,,,0.00,,2013-03-03 14:52:00,
2013-03-03 09:01:00,45.0,27.0,30.17,South,177,8.0,15.0,50,0.00,,,0.00,,2013-03-03 15:01:00,
2013-03-03 09:11:00,45.0,27.0,30.17,South,177,8.0,15.0,50,0.00,,,0.00,,2013-03-03 15:11:00,
2013-03-03 09:22:00,46.0,27.0,30.16,South,185,10.0,15.0,47,0.00,,,0.00,,2013-03-03 15:22:00,
2013-03-03 09:32:00,49.0,29.0,30.16,South,180,7.0,17.0,45,0.00,,,0.00,,2013-03-03 15:32:00,
2013-03-03 09:42:00,49.0,29.0,30.16,South,180,7.0,17.0,45,0.00,,,0.00,,2013-03-03 15:42:00,
2013-03-03 09:52:00,50.0,28.0,30.16,SSW,196,9.0,13.0,43,0.00,,,0.00,,2013-03-03 15:52:00,
2013-03-03 10:01:00,51.0,28.0,30.15,South,178,13.0,22.0,41,0.00,,,0.00,,2013-03-03 16:01:00,
2013-03-03 10:12:00,51.0,28.0,30.15,South,178,13.0,22.0,41,0.00,,,0.00,,2013-03-03 16:12:00,
2013-03-03 10:21:00,52.0,29.0,30.14,SSE,155,12.0,20.0,41,0.00,,,0.00,,2013-03-03 16:21:00,
2013-03-03 10:32:00,55.0,30.0,30.13,SSW,194,13.0,22.0,38,0.00,,,0.00,,2013-03-03 16:32:00,
2013-03-03 10:42:00,55.0,30.0,30.13,SSW,194,13.0,22.0,38,0.00,,,0.00,,2013-03-03 16:42:00,
2013-03-03 10:52:00,55.0,29.0,30.13,SSE,167,10.0,22.0,37,0.00,,,0.00,,2013-03-03 16:52:00,
2013-03-03 11:01:00,57.0,29.0,30.13,South,179,14.0,23.0,34,0.00,,,0.00,,2013-03-03 17:01:00,
2013-03-03 11:11:00,58.0,31.0,30.11,South,181,12.0,21.0,36,0.00,,,0.00,,2013-03-03 17:11:00,
2013-03-03 11:22:00,58.0,31.0,30.11,South,181,12.0,21.0,36,0.00,,,0.00,,2013-03-03 17:22:00,
2013-03-03 11:32:00,59.0,31.0,30.10,South,177,10.0,20.0,34,0.00,,,0.00,,2013-03-03 17:32:00,
2013-03-03 11:42:00,59.0,31.0,30.10,South,177,10.0,20.0,34,0.00,,,0.00,,2013-03-03 17:42:00,
2013-03-03 11:52:00,59.0,31.0,30.09,SSE,151,13.0,20.0,34,0.00,,,0.00,,2013-03-03 17:52:00,
2013-03-03 12:01:00,60.0,32.0,30.08,South,169,10.0,20.0,35,0.00,,,0.00,,2013-03-03 18:01:00,
2013-03-03 12:11:00,60.0,32.0,30.08,South,169,10.0,20.0,35,0.00,,,0.00,,2013-03-03 18:11:00,
2013-03-03 12:21:00,61.0,32.0,30.07,SSE,164,12.0,22.0,33,0.00,,,0.00,,2013-03-03 18:21:00,
2013-03-03 12:32:00,62.0,32.0,30.06,SSW,200,12.0,21.0,32,0.00,,,0.00,,2013-03-03 18:32:00,
2013-03-03 12:42:00,62.0,32.0,30.06,SSW,200,12.0,21.0,32,0.00,,,0.00,,2013-03-03 18:42:00,
2013-03-03 12:52:00,63.0,33.0,30.05,South,183,10.0,17.0,32,0.00,,,0.00,,2013-03-03 18:52:00,
2013-03-03 13:02:00,64.0,32.0,30.04,SSE,147,11.0,20.0,30,0.00,,,0.00,,2013-03-03 19:02:00,
2013-03-03 13:11:00,65.0,32.0,30.03,South,173,12.0,20.0,29,0.00,,,0.00,,2013-03-03 19:11:00,
2013-03-03 13:21:00,65.0,32.0,30.03,South,173,12.0,20.0,29,0.00,,,0.00,,2013-03-03 19:21:00,
2013-03-03 13:32:00,66.0,34.0,30.01,SSW,196,11.0,17.0,30,0.00,,,0.00,,2013-03-03 19:32:00,
2013-03-03 13:42:00,66.0,34.0,30.01,SSW,196,11.0,17.0,30,0.00,,,0.00,,2013-03-03 19:42:00,
2013-03-03 13:51:00,65.0,33.0,30.00,South,170,12.0,20.0,30,0.00,,,0.00,,2013-03-03 19:51:00,
2013-03-03 14:01:00,66.0,33.0,29.98,South,178,12.0,18.0,29,0.00,,,0.00,,2013-03-03 20:01:00,
2013-03-03 14:11:00,66.0,33.0,29.98,South,178,12.0,18.0,29,0.00,,,0.00,,2013-03-03 20:11:00,
2013-03-03 14:21:00,67.0,34.0,29.97,SSW,197,11.0,20.0,29,0.00,,,0.00,,2013-03-03 20:21:00,
2013-03-03 14:32:00,68.0,35.0,29.96,South,176,13.0,20.0,29,0.00,,,0.00,,2013-03-03 20:32:00,
2013-03-03 14:42:00,68.0,35.0,29.96,South,176,13.0,20.0,29,0.00,,,0.00,,2013-03-03 20:42:00,
2013-03-03 14:52:00,67.0,35.0,29.96,South,176,12.0,23.0,31,0.00,,,0.00,,2013-03-03 20:52:00,
2013-03-03 15:02:00,68.0,35.0,29.93,SSE,157,13.0,21.0,30,0.00,,,0.00,,2013-03-03 21:02:00,
2013-03-03 15:11:00,68.0,35.0,29.93,SSE,157,13.0,21.0,30,0.00,,,0.00,,2013-03-03 21:11:00,
2013-03-03 15:21:00,67.0,35.0,29.93,South,182,14.0,24.0,30,0.00,,,0.00,,2013-03-03 21:21:00,
2013-03-03 15:32:00,68.0,35.0,29.92,SSE,161,13.0,22.0,30,0.00,,,0.00,,2013-03-03 21:32:00,
2013-03-03 15:42:00,68.0,35.0,29.92,SSE,161,13.0,22.0,30,0.00,,,0.00,,2013-03-03 21:42:00,
2013-03-03 15:52:00,68.0,35.0,29.92,SSE,167,12.0,22.0,30,0.00,,,0.00,,2013-03-03 21:52:00,
2013-03-03 16:01:00,68.0,35.0,29.90,South,177,12.0,22.0,30,0.00,,,0.00,,2013-03-03 22:01:00,
2013-03-03 16:11:00,68.0,35.0,29.90,South,177,12.0,22.0,30,0.00,,,0.00,,2013-03-03 22:11:00,
2013-03-03 16:22:00,68.0,35.0,29.89,SSE,159,13.0,22.0,30,0.00,,,0.00,,2013-03-03 22:22:00,
2013-03-03 16:32:00,68.0,35.0,29.89,SSE,164,14.0,26.0,29,0.00,,,0.00,,2013-03-03 22:32:00,
2013-03-03 16:42:00,68.0,35.0,29.89,SSE,164,14.0,26.0,29,0.00,,,0.00,,2013-03-03 22:42:00,
2013-03-03 16:52:00,68.0,35.0,29.89,SSE,164,14.0,26.0,29,0.00,,,0.00,,2013-03-03 22:52:00,
2013-03-03 17:01:00,68.0,36.0,29.88,South,182,12.0,26.0,31,0.00,,,0.00,,2013-03-03 23:01:00,
2013-03-03 17:11:00,68.0,36.0,29.88,South,182,12.0,26.0,31,0.00,,,0.00,,2013-03-03 23:11:00,
2013-03-03 17:21:00,68.0,35.0,29.88,SSE,156,10.0,24.0,30,0.00,,,0.00,,2013-03-03 23:21:00,
2013-03-03 17:32:00,67.0,35.0,29.88,SSE,166,9.0,20.0,31,0.00,,,0.00,,2013-03-03 23:32:00,
2013-03-03 17:42:00,67.0,35.0,29.88,SSE,166,9.0,20.0,31,0.00,,,0.00,,2013-03-03 23:42:00,
2013-03-03 17:52:00,68.0,36.0,29.87,South,187,12.0,23.0,31,0.00,,,0.00,,2013-03-03 23:52:00,
2013-03-03 18:01:00,68.0,36.0,29.87,South,187,12.0,23.0,31,0.00,,,0.00,,2013-03-04 00:01:00,
2013-03-03 18:11:00,68.0,36.0,29.87,South,187,12.0,23.0,31,0.00,,,0.00,,2013-03-04 00:11:00,
2013-03-03 18:21:00,66.0,36.0,29.87,SSE,156,7.0,18.0,33,0.00,,,0.00,,2013-03-04 00:21:00,
2013-03-03 18:32:00,65.0,36.0,29.86,SSE,163,9.0,17.0,34,0.00,,,0.00,,2013-03-04 00:32:00,
2013-03-03 18:42:00,65.0,36.0,29.86,SSE,163,9.0,17.0,34,0.00,,,0.00,,2013-03-04 00:42:00,
2013-03-03 18:52:00,64.0,36.0,29.85,SSE,159,11.0,17.0,35,0.00,,,0.00,,2013-03-04 00:52:00,
2013-03-03 19:01:00,64.0,36.0,29.84,SSE,159,13.0,20.0,35,0.00,,,0.00,,2013-03-04 01:01:00,
2013-03-03 19:11:00,64.0,36.0,29.84,SSE,159,13.0,20.0,35,0.00,,,0.00,,2013-03-04 01:11:00,
2013-03-03 19:21:00,63.0,36.0,29.84,SSE,157,11.0,18.0,36,0.00,,,0.00,,2013-03-04 01:21:00,
2013-03-03 19:32:00,63.0,36.0,29.83,SSE,150,10.0,17.0,36,0.00,,,0.00,,2013-03-04 01:32:00,
2013-03-03 19:42:00,63.0,36.0,29.83,SSE,150,10.0,17.0,36,0.00,,,0.00,,2013-03-04 01:42:00,
2013-03-03 19:51:00,63.0,36.0,29.83,SSE,150,10.0,17.0,36,0.00,,,0.00,,2013-03-04 01:51:00,
2013-03-03 20:01:00,61.0,36.0,29.82,SSE,152,10.0,17.0,40,0.00,,,0.00,,2013-03-04 02:01:00,
2013-03-03 20:11:00,61.0,36.0,29.82,SSE,152,10.0,17.0,40,0.00,,,0.00,,2013-03-04 02:11:00,
2013-03-03 20:22:00,61.0,36.0,29.82,SSE,152,10.0,17.0,40,0.00,,,0.00,,2013-03-04 02:22:00,
2013-03-03 20:32:00,61.0,36.0,29.82,SSE,152,10.0,17.0,40,0.00,,,0.00,,2013-03-04 02:32:00,
2013-03-03 20:42:00,61.0,36.0,29.82,SSE,152,10.0,17.0,40,0.00,,,0.00,,2013-03-04 02:42:00,
2013-03-03 21:02:00,61.0,38.0,29.82,SSE,153,10.0,17.0,42,0.00,,,0.00,,2013-03-04 03:02:00,
2013-03-03 21:11:00,61.0,38.0,29.82,SSE,153,10.0,17.0,42,0.00,,,0.00,,2013-03-04 03:11:00,
2013-03-03 21:21:00,61.0,38.0,29.82,SSE,153,10.0,17.0,42,0.00,,,0.00,,2013-03-04 03:21:00,
2013-03-03 21:32:00,61.0,38.0,29.83,SSE,149,9.0,16.0,43,0.00,,,0.00,,2013-03-04 03:32:00,
2013-03-03 21:42:00,61.0,38.0,29.83,SSE,149,9.0,16.0,43,0.00,,,0.00,,2013-03-04 03:42:00,
2013-03-03 21:52:00,61.0,38.0,29.83,SSE,149,9.0,16.0,43,0.00,,,0.00,,2013-03-04 03:52:00,
2013-03-03 22:01:00,61.0,40.0,29.82,SSE,165,11.0,18.0,46,0.00,,,0.00,,2013-03-04 04:01:00,
2013-03-03 22:11:00,61.0,40.0,29.82,SSE,165,11.0,18.0,46,0.00,,,0.00,,2013-03-04 04:11:00,
2013-03-03 22:22:00,61.0,41.0,29.81,SSE,156,13.0,20.0,48,0.00,,,0.00,,2013-03-04 04:22:00,
2013-03-03 22:32:00,60.0,41.0,29.81,SSE,159,10.0,16.0,50,0.00,,,0.00,,2013-03-04 04:32:00,
2013-03-03 22:42:00,60.0,41.0,29.81,SSE,159,10.0,16.0,50,0.00,,,0.00,,2013-03-04 04:42:00,
2013-03-03 22:51:00,60.0,42.0,29.81,SSE,156,10.0,21.0,51,0.00,,,0.00,,2013-03-04 04:51:00,
2013-03-03 23:01:00,59.0,42.0,29.81,SE,146,10.0,18.0,53,0.00,,,0.00,,2013-03-04 05:01:00,
2013-03-03 23:11:00,59.0,42.0,29.81,SE,146,10.0,18.0,53,0.00,,,0.00,,2013-03-04 05:11:00,
2013-03-03 23:22:00,59.0,42.0,29.81,SE,146,10.0,18.0,53,0.00,,,0.00,,2013-03-04 05:22:00,
2013-03-03 23:31:00,59.0,43.0,29.81,SSE,161,10.0,17.0,56,0.00,,,0.00,,2013-03-04 05:31:00,
2013-03-03 23:42:00,59.0,44.0,29.80,SSE,153,13.0,18.0,57,0.00,,,0.00,,2013-03-04 05:42:00,
2013-03-03 23:52:00,59.0,44.0,29.80,SSE,153,13.0,18.0,57,0.00,,,0.00,,2013-03-04 05:52:00,